createdAt,value
2022-11-29T00:01:42.251Z,-0.50
2022-11-29T00:04:09.468Z,-0.60
2022-11-29T00:06:36.752Z,-0.50
2022-11-29T00:09:06.522Z,-0.40
2022-11-29T00:11:53.233Z,-0.30
2022-11-29T00:14:20.841Z,-0.40
2022-11-29T00:16:55.018Z,-0.70
2022-11-29T00:19:22.057Z,-0.80
2022-11-29T00:21:48.898Z,-1.00
2022-11-29T00:24:20.317Z,-1.20
2022-11-29T00:26:47.266Z,-1.30
2022-11-29T00:29:14.223Z,-1.50
2022-11-29T00:31:41.290Z,-1.50
2022-11-29T00:34:10.023Z,-1.50
2022-11-29T00:36:36.969Z,-1.30
2022-11-29T00:39:04.660Z,-1.10
2022-11-29T00:41:31.870Z,-1.00
2022-11-29T00:43:58.892Z,-0.80
2022-11-29T00:46:25.840Z,-0.70
2022-11-29T00:48:52.976Z,-0.70
2022-11-29T00:51:19.918Z,-0.60
2022-11-29T00:53:46.920Z,-0.50
2022-11-29T00:56:14.166Z,-0.50
2022-11-29T00:58:43.617Z,-0.70
2022-11-29T01:01:11.642Z,-0.90
2022-11-29T01:03:38.921Z,-0.90
2022-11-29T01:06:07.376Z,-1.00
2022-11-29T01:08:34.271Z,-0.80
2022-11-29T01:11:02.626Z,-0.70
2022-11-29T01:13:29.590Z,-0.40
2022-11-29T01:15:59.606Z,-0.30
2022-11-29T01:18:26.653Z,0.00
2022-11-29T01:21:00.517Z,0.20
2022-11-29T01:23:27.824Z,0.50
2022-11-29T01:25:56.013Z,0.50
2022-11-29T01:28:22.959Z,0.50
2022-11-29T01:30:49.896Z,0.60
2022-11-29T01:33:16.822Z,0.70
2022-11-29T01:35:47.663Z,0.60
2022-11-29T01:38:14.621Z,0.40
2022-11-29T01:40:44.956Z,0.40
2022-11-29T01:43:14.543Z,0.50
2022-11-29T01:45:41.734Z,0.50
2022-11-29T01:48:09.041Z,0.50
2022-11-29T01:50:37.418Z,0.50
2022-11-29T01:53:04.796Z,0.60
2022-11-29T01:55:37.680Z,0.70
2022-11-29T01:58:08.192Z,0.90
2022-11-29T02:00:35.274Z,1.10
2022-11-29T02:03:05.426Z,1.20
2022-11-29T02:05:32.811Z,1.20
2022-11-29T02:08:00.400Z,1.10
2022-11-29T02:10:59.956Z,1.10
2022-11-29T02:13:37.776Z,1.10
2022-11-29T02:16:10.750Z,1.20
2022-11-29T02:18:37.861Z,1.30
2022-11-29T02:21:09.725Z,1.30
2022-11-29T02:23:48.968Z,1.30
2022-11-29T02:26:36.344Z,1.40
2022-11-29T02:29:18.579Z,1.40
2022-11-29T02:32:05.734Z,1.40
2022-11-29T02:34:32.740Z,1.30
2022-11-29T02:37:26.075Z,1.10
2022-11-29T02:40:05.483Z,1.10
2022-11-29T02:42:56.111Z,1.10
2022-11-29T02:45:36.207Z,1.00
2022-11-29T02:48:21.740Z,0.80
2022-11-29T02:50:55.030Z,0.40
2022-11-29T02:53:29.790Z,0.00
2022-11-29T02:56:03.562Z,-0.10
2022-11-29T02:58:51.809Z,-0.40
2022-11-29T03:01:19.071Z,-0.60
2022-11-29T03:04:02.032Z,-0.80
2022-11-29T03:06:33.538Z,-0.90
2022-11-29T03:09:19.388Z,-1.10
2022-11-29T03:11:54.590Z,-1.00
2022-11-29T03:14:31.208Z,-0.90
2022-11-29T03:16:58.227Z,-0.60
2022-11-29T03:19:28.334Z,-0.60
2022-11-29T03:21:55.191Z,-0.70
2022-11-29T03:24:31.714Z,-0.70
2022-11-29T03:27:11.790Z,-0.50
2022-11-29T03:29:45.015Z,-0.40
2022-11-29T03:32:16.237Z,-0.20
2022-11-29T03:34:54.239Z,0.20
2022-11-29T03:37:44.041Z,0.10
2022-11-29T03:40:14.728Z,0.10
2022-11-29T03:42:53.294Z,0.10
2022-11-29T03:45:29.593Z,-0.10
2022-11-29T03:47:56.517Z,-0.30
2022-11-29T03:50:27.582Z,-0.50
2022-11-29T03:53:03.253Z,-0.70
2022-11-29T03:55:50.249Z,-0.80
2022-11-29T03:58:44.596Z,-0.90
2022-11-29T04:01:30.533Z,-1.00
2022-11-29T04:03:57.495Z,-1.00
2022-11-29T04:06:24.598Z,-0.80
2022-11-29T04:08:57.630Z,-0.70
2022-11-29T04:11:27.565Z,-0.60
2022-11-29T04:13:57.904Z,-0.60
2022-11-29T04:16:24.867Z,-0.60
2022-11-29T04:19:01.362Z,-0.50
2022-11-29T04:21:46.775Z,-0.50
2022-11-29T04:24:15.114Z,-0.60
2022-11-29T04:26:45.056Z,-0.60
2022-11-29T04:29:14.989Z,-0.50
2022-11-29T04:31:54.638Z,-0.40
2022-11-29T04:34:30.155Z,-0.30
2022-11-29T04:36:57.099Z,-0.20
2022-11-29T04:39:58.804Z,0.10
2022-11-29T04:42:46.389Z,0.20
2022-11-29T04:45:31.803Z,0.30
2022-11-29T04:48:17.653Z,0.20
2022-11-29T04:50:48.526Z,0.10
2022-11-29T04:53:45.004Z,0.10
2022-11-29T04:56:23.095Z,0.00
2022-11-29T04:59:08.877Z,-0.10
2022-11-29T05:01:59.525Z,-0.10
2022-11-29T05:04:32.136Z,0.10
2022-11-29T05:07:02.116Z,0.20
2022-11-29T05:09:41.194Z,0.20
2022-11-29T05:12:19.006Z,0.30
2022-11-29T05:15:09.891Z,0.40
2022-11-29T05:17:53.341Z,0.80
2022-11-29T05:20:39.102Z,1.00
2022-11-29T05:23:21.905Z,1.30
2022-11-29T05:25:48.836Z,1.30
2022-11-29T05:28:29.376Z,1.60
2022-11-29T05:31:15.243Z,1.90
2022-11-29T05:33:45.319Z,2.10
2022-11-29T05:36:21.718Z,2.30
2022-11-29T05:38:58.038Z,2.20
2022-11-29T05:41:39.823Z,2.30
2022-11-29T05:44:16.073Z,2.30
2022-11-29T05:46:50.865Z,2.40
2022-11-29T05:49:29.633Z,2.50
2022-11-29T05:52:15.420Z,2.60
2022-11-29T05:54:54.776Z,2.50
2022-11-29T05:57:24.761Z,2.50
2022-11-29T05:59:51.948Z,2.30
2022-11-29T06:02:28.069Z,1.90
2022-11-29T06:05:00.847Z,1.30
2022-11-29T06:07:27.875Z,0.90
2022-11-29T06:10:02.159Z,0.60
2022-11-29T06:12:32.060Z,0.40
2022-11-29T06:15:19.780Z,0.10
2022-11-29T06:17:48.866Z,0.10
2022-11-29T06:20:15.707Z,0.10
2022-11-29T06:22:50.555Z,0.10
2022-11-29T06:25:37.398Z,-0.10
2022-11-29T06:28:16.479Z,-0.20
2022-11-29T06:31:03.102Z,-0.30
2022-11-29T06:33:36.399Z,-0.10
2022-11-29T06:36:09.589Z,0.20
2022-11-29T06:38:39.927Z,0.20
2022-11-29T06:41:08.521Z,0.20
2022-11-29T06:43:35.440Z,0.30
2022-11-29T06:46:06.061Z,0.40
2022-11-29T06:48:40.317Z,0.60
2022-11-29T06:51:27.484Z,0.60
2022-11-29T06:54:00.527Z,0.50
2022-11-29T06:56:36.753Z,0.50
2022-11-29T06:59:03.786Z,0.50
2022-11-29T07:01:30.658Z,0.60
2022-11-29T07:04:17.302Z,0.40
2022-11-29T07:06:44.375Z,0.10
2022-11-29T07:09:11.245Z,-0.10
2022-11-29T07:11:38.420Z,-0.10
2022-11-29T07:14:05.904Z,-0.10
2022-11-29T07:16:50.199Z,-0.10
2022-11-29T07:19:26.452Z,-0.10
2022-11-29T07:21:56.191Z,-0.10
2022-11-29T07:24:34.411Z,-0.20
2022-11-29T07:27:24.053Z,-0.30
2022-11-29T07:29:50.957Z,-0.40
2022-11-29T07:32:20.918Z,-0.50
2022-11-29T07:34:59.097Z,-0.60
2022-11-29T07:37:39.885Z,-0.60
2022-11-29T07:40:19.418Z,-0.60
2022-11-29T07:42:49.601Z,-0.60
2022-11-29T07:45:21.520Z,-0.30
2022-11-29T07:47:49.778Z,-0.10
2022-11-29T07:50:16.864Z,0.10
2022-11-29T07:52:45.402Z,0.30
2022-11-29T07:55:18.905Z,0.30
2022-11-29T07:57:46.710Z,0.30
2022-11-29T08:00:14.118Z,0.30
2022-11-29T08:02:41.419Z,0.40
2022-11-29T08:05:09.009Z,0.70
2022-11-29T08:07:36.818Z,0.70
2022-11-29T08:10:09.676Z,0.60
2022-11-29T08:12:36.906Z,0.50
2022-11-29T08:15:04.192Z,0.40
2022-11-29T08:17:31.008Z,0.30
2022-11-29T08:20:02.590Z,0.20
2022-11-29T08:22:30.929Z,0.20
2022-11-29T08:24:58.647Z,0.00
2022-11-29T08:27:25.702Z,-0.30
2022-11-29T08:29:52.733Z,-0.30
2022-11-29T08:32:19.726Z,-0.30
2022-11-29T08:34:47.004Z,-0.20
2022-11-29T08:37:14.251Z,0.00
2022-11-29T08:39:41.627Z,0.30
2022-11-29T08:42:08.691Z,0.30
2022-11-29T08:44:35.672Z,0.40
2022-11-29T08:47:21.147Z,0.20
2022-11-29T08:50:04.229Z,0.20
2022-11-29T08:52:56.316Z,0.20
2022-11-29T08:55:24.979Z,0.30
2022-11-29T08:57:52.681Z,0.40
2022-11-29T09:00:21.387Z,0.50
2022-11-29T09:02:48.621Z,0.60
2022-11-29T09:05:15.953Z,0.50
2022-11-29T09:07:43.616Z,0.50
2022-11-29T09:10:12.396Z,0.50
2022-11-29T09:12:40.035Z,0.50
2022-11-29T09:15:08.724Z,0.60
2022-11-29T09:17:35.687Z,0.60
2022-11-29T09:20:03.349Z,0.50
2022-11-29T09:22:30.238Z,0.50
2022-11-29T09:24:57.570Z,0.50
2022-11-29T09:27:24.382Z,0.40
2022-11-29T09:29:51.280Z,0.30
2022-11-29T09:32:18.837Z,0.30
2022-11-29T09:34:46.297Z,0.10
2022-11-29T09:37:14.008Z,0.10
2022-11-29T09:39:41.755Z,0.20
2022-11-29T09:42:11.994Z,0.30
2022-11-29T09:44:51.409Z,0.50
2022-11-29T09:47:27.453Z,0.40
2022-11-29T09:49:54.434Z,0.40
2022-11-29T09:52:40.010Z,0.40
2022-11-29T09:55:37.417Z,0.50
2022-11-29T09:58:06.014Z,0.90
2022-11-29T10:00:39.054Z,0.70
2022-11-29T10:03:20.005Z,1.00
2022-11-29T10:05:53.857Z,1.20
2022-11-29T10:08:23.935Z,1.10
2022-11-29T10:10:53.131Z,0.80
2022-11-29T10:13:26.083Z,0.70
2022-11-29T10:15:54.135Z,0.80
2022-11-29T10:18:38.637Z,0.70
2022-11-29T10:21:10.604Z,0.40
2022-11-29T10:23:41.956Z,0.40
2022-11-29T10:26:11.126Z,0.40
2022-11-29T10:28:38.285Z,0.40
2022-11-29T10:31:08.302Z,0.50
2022-11-29T10:33:37.094Z,0.60
2022-11-29T10:36:05.560Z,0.60
2022-11-29T10:38:32.794Z,0.50
2022-11-29T10:41:07.804Z,0.40
2022-11-29T10:43:35.203Z,0.20
2022-11-29T10:46:03.855Z,0.20
2022-11-29T10:48:32.597Z,0.30
2022-11-29T10:51:00.274Z,0.40
2022-11-29T10:53:30.871Z,0.40
2022-11-29T10:56:02.753Z,0.30
2022-11-29T10:58:31.907Z,0.40
2022-11-29T11:00:58.833Z,0.40
2022-11-29T11:03:28.047Z,0.40
2022-11-29T11:06:15.270Z,0.50
2022-11-29T11:08:43.170Z,0.50
2022-11-29T11:11:11.675Z,0.50
2022-11-29T11:13:39.562Z,0.50
2022-11-29T11:16:17.371Z,0.40
2022-11-29T11:18:47.845Z,0.40
2022-11-29T11:21:16.243Z,0.50
2022-11-29T11:23:46.693Z,0.50
2022-11-29T11:26:14.925Z,0.50
2022-11-29T11:29:01.855Z,0.40
2022-11-29T11:31:34.378Z,0.40
2022-11-29T11:34:23.456Z,0.60
2022-11-29T11:36:50.450Z,0.50
2022-11-29T11:39:21.869Z,0.60
2022-11-29T11:42:08.398Z,0.70
2022-11-29T11:44:48.889Z,0.50
2022-11-29T11:47:21.013Z,0.60
2022-11-29T11:49:49.593Z,0.50
2022-11-29T11:52:21.627Z,0.50
2022-11-29T11:54:51.850Z,0.50
2022-11-29T11:57:19.135Z,0.40
2022-11-29T11:59:50.339Z,0.50
2022-11-29T12:02:27.787Z,0.40
2022-11-29T12:04:56.939Z,0.50
2022-11-29T12:08:06.842Z,0.40
2022-11-29T12:10:27.113Z,0.50
2022-11-29T12:12:54.975Z,0.50
2022-11-29T12:15:31.226Z,0.60
2022-11-29T12:18:09.831Z,0.80
2022-11-29T12:20:44.337Z,1.00
2022-11-29T12:23:14.597Z,0.70
2022-11-29T12:25:51.086Z,0.70
2022-11-29T12:28:20.781Z,0.60
2022-11-29T12:30:51.131Z,0.70
2022-11-29T12:33:36.027Z,0.80
2022-11-29T12:36:15.218Z,0.90
2022-11-29T12:38:42.155Z,0.80
2022-11-29T12:41:21.987Z,0.80
2022-11-29T12:43:54.997Z,0.80
2022-11-29T12:46:26.320Z,0.80
2022-11-29T12:49:06.388Z,0.80
2022-11-29T12:51:33.322Z,0.80
2022-11-29T12:54:18.640Z,0.90
2022-11-29T12:56:52.809Z,0.90
2022-11-29T12:59:45.318Z,1.00
2022-11-29T13:02:20.900Z,0.90
2022-11-29T13:04:55.021Z,1.00
2022-11-29T13:07:38.613Z,1.10
2022-11-29T13:10:18.025Z,0.90
2022-11-29T13:13:12.401Z,0.90
2022-11-29T13:15:42.899Z,0.90
2022-11-29T13:18:14.833Z,0.80
2022-11-29T13:20:51.040Z,0.80
2022-11-29T13:23:39.121Z,0.80
2022-11-29T13:26:11.350Z,1.00
2022-11-29T13:28:39.579Z,0.70
2022-11-29T13:31:07.695Z,0.60
2022-11-29T13:33:46.887Z,0.60
2022-11-29T13:36:16.847Z,0.60
2022-11-29T13:38:46.608Z,0.70
2022-11-29T13:41:32.323Z,0.60
2022-11-29T13:44:04.666Z,0.60
2022-11-29T13:47:00.692Z,0.70
2022-11-29T13:49:46.390Z,0.70
2022-11-29T13:52:39.793Z,0.60
2022-11-29T13:55:13.236Z,0.60
2022-11-29T13:58:19.139Z,0.70
2022-11-29T14:00:46.125Z,0.80
2022-11-29T14:03:18.925Z,0.80
2022-11-29T14:05:47.191Z,1.10
2022-11-29T14:08:26.574Z,1.40
2022-11-29T14:10:55.323Z,1.50
2022-11-29T14:13:23.412Z,1.60
2022-11-29T14:15:58.578Z,1.40
2022-11-29T14:18:54.970Z,1.20
2022-11-29T14:21:22.063Z,0.90
2022-11-29T14:23:49.284Z,0.60
2022-11-29T14:26:28.093Z,0.30
2022-11-29T14:28:55.804Z,0.20
2022-11-29T14:31:41.565Z,0.20
2022-11-29T14:34:16.923Z,0.10
2022-11-29T14:37:19.399Z,0.10
2022-11-29T14:39:48.072Z,0.10
2022-11-29T14:42:19.374Z,0.20
2022-11-29T14:44:53.502Z,0.30
2022-11-29T14:47:24.242Z,0.40
2022-11-29T14:49:53.044Z,0.40
2022-11-29T14:52:28.455Z,0.60
2022-11-29T14:54:55.983Z,0.80
2022-11-29T14:57:42.056Z,0.70
2022-11-29T15:00:11.339Z,0.80
2022-11-29T15:02:45.375Z,0.80
2022-11-29T15:05:21.822Z,0.70
2022-11-29T15:08:04.148Z,0.50
2022-11-29T15:10:33.614Z,0.40
2022-11-29T15:13:00.814Z,0.20
2022-11-29T15:15:34.016Z,0.20
2022-11-29T15:18:06.939Z,0.10
2022-11-29T15:20:55.076Z,0.10
2022-11-29T15:23:22.019Z,0.00
2022-11-29T15:25:53.066Z,0.00
2022-11-29T15:28:25.271Z,-0.10
2022-11-29T15:31:09.194Z,-0.20
2022-11-29T15:33:42.364Z,-0.20
2022-11-29T15:36:28.628Z,-0.30
2022-11-29T15:38:59.876Z,-0.10
2022-11-29T15:41:28.508Z,-0.20
2022-11-29T15:44:06.239Z,-0.20
2022-11-29T15:46:34.506Z,-0.30
2022-11-29T15:49:18.420Z,-0.40
2022-11-29T15:51:52.574Z,-0.30
2022-11-29T15:54:38.386Z,-0.10
2022-11-29T15:57:11.765Z,-0.10
2022-11-29T15:59:42.350Z,0.00
2022-11-29T16:02:23.007Z,0.00
2022-11-29T16:04:52.206Z,0.00
2022-11-29T16:07:20.211Z,0.10
2022-11-29T16:09:49.735Z,0.20
2022-11-29T16:12:17.657Z,0.20
2022-11-29T16:14:50.843Z,0.20
2022-11-29T16:17:20.904Z,0.20
2022-11-29T16:19:47.928Z,-0.10
2022-11-29T16:22:16.949Z,-0.20
2022-11-29T16:24:56.124Z,-0.40
2022-11-29T16:27:23.481Z,-0.40
2022-11-29T16:29:51.040Z,-0.40
2022-11-29T16:32:21.133Z,-0.40
2022-11-29T16:34:48.727Z,-0.30
2022-11-29T16:37:21.936Z,-0.30
2022-11-29T16:39:50.340Z,-0.40
2022-11-29T16:42:24.996Z,-0.20
2022-11-29T16:44:59.107Z,-0.10
2022-11-29T16:47:27.392Z,0.00
2022-11-29T16:50:15.470Z,0.20
2022-11-29T16:52:42.741Z,0.30
2022-11-29T16:55:09.596Z,0.50
2022-11-29T16:57:36.766Z,0.50
2022-11-29T17:00:22.677Z,0.50
2022-11-29T17:02:49.699Z,0.50
2022-11-29T17:05:16.748Z,0.40
2022-11-29T17:07:44.335Z,0.30
2022-11-29T17:10:13.757Z,0.40
2022-11-29T17:12:46.363Z,0.40
2022-11-29T17:15:16.493Z,0.30
2022-11-29T17:17:45.546Z,0.40
2022-11-29T17:20:15.223Z,0.20
2022-11-29T17:22:42.317Z,0.00
2022-11-29T17:25:09.912Z,-0.40
2022-11-29T17:27:36.994Z,-0.70
2022-11-29T17:30:06.819Z,-0.90
2022-11-29T17:32:36.282Z,-0.90
2022-11-29T17:35:09.508Z,-0.70
2022-11-29T17:37:36.777Z,-0.40
2022-11-29T17:40:03.799Z,-0.10
2022-11-29T17:42:30.762Z,0.00
2022-11-29T17:44:57.697Z,0.20
2022-11-29T17:47:24.554Z,0.20
2022-11-29T17:49:51.416Z,0.30
2022-11-29T17:52:18.540Z,0.50
2022-11-29T17:54:45.474Z,0.50
2022-11-29T17:57:12.645Z,0.30
2022-11-29T17:59:39.568Z,0.20
2022-11-29T18:02:06.796Z,0.30
2022-11-29T18:04:33.696Z,0.40
2022-11-29T18:07:01.627Z,0.30
2022-11-29T18:09:28.716Z,0.20
2022-11-29T18:11:55.615Z,0.10
2022-11-29T18:14:23.908Z,0.10
2022-11-29T18:16:52.145Z,0.10
2022-11-29T18:19:20.441Z,0.20
2022-11-29T18:21:48.742Z,0.40
2022-11-29T18:24:15.637Z,0.70
2022-11-29T18:26:42.837Z,0.60
2022-11-29T18:29:12.400Z,0.50
2022-11-29T18:31:41.153Z,0.70
2022-11-29T18:34:11.614Z,0.60
2022-11-29T18:36:43.952Z,0.60
2022-11-29T18:39:11.994Z,0.60
2022-11-29T18:41:41.020Z,0.60
2022-11-29T18:44:09.139Z,0.60
2022-11-29T18:46:37.485Z,0.70
2022-11-29T18:49:05.373Z,0.80
2022-11-29T18:51:32.394Z,0.90
2022-11-29T18:53:59.330Z,1.00
2022-11-29T18:56:27.933Z,0.90
2022-11-29T18:59:03.069Z,0.60
2022-11-29T19:01:31.482Z,0.40
2022-11-29T19:03:59.430Z,0.30
2022-11-29T19:06:35.591Z,0.40
2022-11-29T19:09:06.850Z,0.50
2022-11-29T19:11:33.805Z,0.40
2022-11-29T19:14:03.381Z,0.40
2022-11-29T19:16:31.140Z,0.60
2022-11-29T19:18:58.729Z,0.60
2022-11-29T19:21:26.216Z,0.60
2022-11-29T19:23:57.790Z,0.70
2022-11-29T19:26:31.221Z,0.90
2022-11-29T19:29:06.419Z,1.10
2022-11-29T19:31:37.792Z,1.30
2022-11-29T19:34:05.227Z,1.40
2022-11-29T19:36:32.253Z,1.40
2022-11-29T19:39:02.588Z,1.40
2022-11-29T19:41:30.635Z,1.30
2022-11-29T19:43:58.463Z,1.30
2022-11-29T19:46:26.996Z,1.20
2022-11-29T19:48:56.180Z,1.20
2022-11-29T19:51:23.641Z,1.20
2022-11-29T19:53:52.667Z,1.10
2022-11-29T19:56:20.645Z,1.00
2022-11-29T19:58:48.516Z,0.90
2022-11-29T20:01:17.097Z,0.90
2022-11-29T20:03:45.183Z,0.90
2022-11-29T20:06:13.827Z,0.70
2022-11-29T20:08:40.896Z,0.50
2022-11-29T20:11:11.046Z,0.30
2022-11-29T20:13:42.338Z,0.30
2022-11-29T20:16:10.900Z,0.10
2022-11-29T20:19:03.964Z,0.10
2022-11-29T20:21:32.028Z,0.00
2022-11-29T20:24:01.048Z,-0.10
2022-11-29T20:26:29.058Z,0.00
2022-11-29T20:28:56.047Z,0.00
2022-11-29T20:31:24.206Z,0.00
2022-11-29T20:33:52.392Z,-0.10
2022-11-29T20:36:25.347Z,-0.30
2022-11-29T20:39:07.525Z,-0.60
2022-11-29T20:41:41.940Z,-0.80
2022-11-29T20:44:10.403Z,-0.90
2022-11-29T20:46:37.527Z,-1.00
2022-11-29T20:49:06.687Z,-1.00
2022-11-29T20:51:42.743Z,-1.10
2022-11-29T20:54:12.766Z,-1.40
2022-11-29T20:56:40.023Z,-1.50
2022-11-29T20:59:07.012Z,-1.70
2022-11-29T21:01:34.030Z,-1.70
2022-11-29T21:04:01.032Z,-1.60
2022-11-29T21:06:30.075Z,-1.40
2022-11-29T21:08:57.017Z,-1.40
2022-11-29T21:11:25.452Z,-1.50
2022-11-29T21:13:52.649Z,-1.60
2022-11-29T21:16:26.520Z,-1.80
2022-11-29T21:18:54.691Z,-1.90
2022-11-29T21:21:25.394Z,-2.10
2022-11-29T21:23:55.463Z,-2.10
2022-11-29T21:26:26.052Z,-2.20
2022-11-29T21:29:13.793Z,-2.30
2022-11-29T21:31:40.803Z,-2.40
2022-11-29T21:34:08.798Z,-2.40
2022-11-29T21:36:36.455Z,-2.30
2022-11-29T21:39:06.263Z,-2.00
2022-11-29T21:41:36.485Z,-1.90
2022-11-29T21:44:07.947Z,-1.80
2022-11-29T21:46:37.583Z,-1.70
2022-11-29T21:49:04.783Z,-1.70
2022-11-29T21:51:31.743Z,-1.80
2022-11-29T21:53:58.693Z,-1.80
2022-11-29T21:56:25.914Z,-1.80
2022-11-29T21:58:52.854Z,-1.70
2022-11-29T22:01:20.298Z,-1.70
2022-11-29T22:03:47.727Z,-1.70
2022-11-29T22:06:18.425Z,-1.50
2022-11-29T22:08:48.215Z,-1.40
2022-11-29T22:11:16.675Z,-1.40
2022-11-29T22:14:03.681Z,-1.40
2022-11-29T22:16:30.651Z,-1.40
2022-11-29T22:18:58.827Z,-1.50
2022-11-29T22:21:25.716Z,-1.50
2022-11-29T22:23:52.725Z,-1.30
2022-11-29T22:26:21.574Z,-1.40
2022-11-29T22:28:48.513Z,-1.40
2022-11-29T22:31:15.502Z,-1.30
2022-11-29T22:33:43.904Z,-1.40
2022-11-29T22:36:12.225Z,-1.60
2022-11-29T22:38:39.579Z,-1.60
2022-11-29T22:41:07.983Z,-1.60
2022-11-29T22:43:34.945Z,-1.70
2022-11-29T22:46:12.967Z,-1.80
2022-11-29T22:48:40.533Z,-1.90
2022-11-29T22:51:07.640Z,-2.00
2022-11-29T22:53:35.436Z,-1.90
2022-11-29T22:56:03.652Z,-1.60
2022-11-29T22:58:31.158Z,-1.40
2022-11-29T23:01:04.701Z,-1.50
2022-11-29T23:03:35.809Z,-1.60
2022-11-29T23:06:03.758Z,-1.80
2022-11-29T23:08:31.035Z,-1.90
2022-11-29T23:10:58.596Z,-2.10
2022-11-29T23:13:25.759Z,-2.40
2022-11-29T23:15:53.516Z,-2.60
2022-11-29T23:18:20.633Z,-2.80
2022-11-29T23:20:47.778Z,-2.90
2022-11-29T23:23:18.179Z,-3.00
2022-11-29T23:25:49.565Z,-3.20
2022-11-29T23:28:19.668Z,-3.10
2022-11-29T23:30:46.837Z,-3.10
2022-11-29T23:33:14.638Z,-3.10
2022-11-29T23:35:41.701Z,-3.10
2022-11-29T23:38:08.693Z,-3.00
2022-11-29T23:40:35.648Z,-2.90
2022-11-29T23:43:02.831Z,-2.80
2022-11-29T23:45:30.564Z,-2.80
2022-11-29T23:47:57.494Z,-3.00
2022-11-29T23:50:24.902Z,-3.00
2022-11-29T23:52:54.948Z,-3.10
2022-11-29T23:55:22.736Z,-3.10
2022-11-29T23:57:49.663Z,-3.20
